createdAt,value
2018-10-11T00:00:30.516Z,99.90
2018-10-11T00:02:59.176Z,99.90
2018-10-11T00:05:27.664Z,99.90
2018-10-11T00:07:56.549Z,99.90
2018-10-11T00:10:25.277Z,99.90
2018-10-11T00:12:53.719Z,99.90
2018-10-11T00:15:22.919Z,99.90
2018-10-11T00:17:56.045Z,99.90
2018-10-11T00:20:24.910Z,99.90
2018-10-11T00:22:53.877Z,99.90
2018-10-11T00:25:22.537Z,99.90
2018-10-11T00:27:51.303Z,99.90
2018-10-11T00:30:22.162Z,99.90
2018-10-11T00:32:50.862Z,99.90
2018-10-11T00:35:19.329Z,99.90
2018-10-11T00:37:48.214Z,99.90
2018-10-11T00:40:16.950Z,99.90
2018-10-11T00:42:45.644Z,99.90
2018-10-11T00:45:14.300Z,99.90
2018-10-11T00:47:42.943Z,99.90
2018-10-11T00:50:11.555Z,99.90
2018-10-11T00:52:40.206Z,99.90
2018-10-11T00:55:09.810Z,99.90
2018-10-11T00:57:38.935Z,99.90
2018-10-11T01:00:08.369Z,99.90
2018-10-11T01:02:37.322Z,99.90
2018-10-11T01:05:06.635Z,99.90
2018-10-11T01:07:35.325Z,99.90
2018-10-11T01:10:04.460Z,99.90
2018-10-11T01:12:33.836Z,99.90
2018-10-11T01:15:02.931Z,99.90
2018-10-11T01:17:32.020Z,99.90
2018-10-11T01:20:01.793Z,99.90
2018-10-11T01:22:30.829Z,99.90
2018-10-11T01:25:00.090Z,99.90
2018-10-11T01:27:28.616Z,99.90
2018-10-11T01:29:58.030Z,99.90
2018-10-11T01:32:26.791Z,99.90
2018-10-11T01:34:55.390Z,99.90
2018-10-11T01:37:25.747Z,99.90
2018-10-11T01:39:54.507Z,99.90
2018-10-11T01:42:23.136Z,99.90
2018-10-11T01:44:51.651Z,99.90
2018-10-11T01:47:20.315Z,99.90
2018-10-11T01:49:49.025Z,99.90
2018-10-11T01:52:17.759Z,99.90
2018-10-11T01:54:46.511Z,99.90
2018-10-11T01:57:15.152Z,99.90
2018-10-11T01:59:43.824Z,99.90
2018-10-11T02:02:12.494Z,99.90
2018-10-11T02:04:41.182Z,99.90
2018-10-11T02:07:09.844Z,99.90
2018-10-11T02:09:39.048Z,99.90
2018-10-11T02:12:07.888Z,99.90
2018-10-11T02:14:36.519Z,99.90
2018-10-11T02:17:10.273Z,99.90
2018-10-11T02:19:38.925Z,99.90
2018-10-11T02:22:08.453Z,99.90
2018-10-11T02:24:37.054Z,99.90
2018-10-11T02:27:05.588Z,99.90
2018-10-11T02:29:34.199Z,99.90
2018-10-11T02:32:02.856Z,99.90
2018-10-11T02:34:31.412Z,99.90
2018-10-11T02:37:00.779Z,99.90
2018-10-11T02:39:29.233Z,99.90
2018-10-11T02:41:57.636Z,99.90
2018-10-11T02:44:26.104Z,99.90
2018-10-11T02:46:54.549Z,99.90
2018-10-11T02:49:22.911Z,99.90
2018-10-11T02:51:51.554Z,99.90
2018-10-11T02:54:19.926Z,99.90
2018-10-11T02:56:48.336Z,99.90
2018-10-11T02:59:30.907Z,99.90
2018-10-11T03:02:03.030Z,99.90
2018-10-11T03:04:32.335Z,99.90
2018-10-11T03:07:01.057Z,99.90
2018-10-11T03:09:30.923Z,99.90
2018-10-11T03:11:59.690Z,99.90
2018-10-11T03:14:28.300Z,99.90
2018-10-11T03:16:56.925Z,99.90
2018-10-11T03:19:25.995Z,99.90
2018-10-11T03:21:54.991Z,99.90
2018-10-11T03:24:24.619Z,99.90
2018-10-11T03:26:59.669Z,99.90
2018-10-11T03:29:33.329Z,99.90
2018-10-11T03:32:02.192Z,99.90
2018-10-11T03:34:30.780Z,99.90
2018-10-11T03:36:59.989Z,99.90
2018-10-11T03:39:29.239Z,99.90
2018-10-11T03:41:58.791Z,99.90
2018-10-11T03:44:28.013Z,99.90
2018-10-11T03:46:56.461Z,99.90
2018-10-11T03:49:26.385Z,99.90
2018-10-11T03:51:54.799Z,99.90
2018-10-11T03:54:23.281Z,99.90
2018-10-11T03:56:51.910Z,99.90
2018-10-11T03:59:20.306Z,99.90
2018-10-11T04:01:48.745Z,99.90
2018-10-11T04:04:17.286Z,99.90
2018-10-11T04:06:45.702Z,99.90
2018-10-11T04:09:14.071Z,99.90
2018-10-11T04:11:42.437Z,99.90
2018-10-11T04:14:10.964Z,99.90
2018-10-11T04:16:39.319Z,99.90
2018-10-11T04:19:07.994Z,99.90
2018-10-11T04:21:36.413Z,99.90
2018-10-11T04:24:04.844Z,99.90
2018-10-11T04:26:33.305Z,99.90
2018-10-11T04:29:01.846Z,99.90
2018-10-11T04:31:30.265Z,99.90
2018-10-11T04:33:58.659Z,99.90
2018-10-11T04:36:27.093Z,99.90
2018-10-11T04:38:55.505Z,99.90
2018-10-11T04:41:23.936Z,99.90
2018-10-11T04:43:52.385Z,99.90
2018-10-11T04:46:20.960Z,99.90
2018-10-11T04:48:49.411Z,99.90
2018-10-11T04:51:18.065Z,99.90
2018-10-11T04:53:50.772Z,99.90
2018-10-11T04:56:19.454Z,99.90
2018-10-11T04:58:47.925Z,99.90
2018-10-11T05:01:16.402Z,99.90
2018-10-11T05:03:44.786Z,99.90
2018-10-11T05:06:13.357Z,99.90
2018-10-11T05:08:41.888Z,99.90
2018-10-11T05:11:10.476Z,99.90
2018-10-11T05:13:44.391Z,99.90
2018-10-11T05:16:13.491Z,99.90
2018-10-11T05:18:43.666Z,99.90
2018-10-11T05:21:12.216Z,99.90
2018-10-11T05:23:41.431Z,99.90
2018-10-11T05:26:09.977Z,99.90
2018-10-11T05:28:38.338Z,99.90
2018-10-11T05:31:06.844Z,99.90
2018-10-11T05:33:36.617Z,99.90
2018-10-11T05:36:05.267Z,99.90
2018-10-11T05:38:33.660Z,99.90
2018-10-11T05:41:02.118Z,99.90
2018-10-11T05:43:30.720Z,99.90
2018-10-11T05:46:00.998Z,99.90
2018-10-11T05:48:31.107Z,99.90
2018-10-11T05:51:00.408Z,99.90
2018-10-11T05:53:29.146Z,99.90
2018-10-11T05:55:58.525Z,99.90
2018-10-11T05:58:27.622Z,99.90
2018-10-11T06:00:56.525Z,99.90
2018-10-11T06:03:25.094Z,99.90
2018-10-11T06:05:53.533Z,99.90
2018-10-11T06:08:22.013Z,99.90
2018-10-11T06:10:51.456Z,99.90
2018-10-11T06:13:20.103Z,99.90
2018-10-11T06:15:48.827Z,99.90
2018-10-11T06:18:17.285Z,99.90
2018-10-11T06:20:46.549Z,99.90
2018-10-11T06:23:14.979Z,99.90
2018-10-11T06:25:43.475Z,99.90
2018-10-11T06:28:11.921Z,99.90
2018-10-11T06:30:40.515Z,99.90
2018-10-11T06:33:08.973Z,99.90
2018-10-11T06:35:38.417Z,99.90
2018-10-11T06:38:07.101Z,99.90
2018-10-11T06:40:37.663Z,99.90
2018-10-11T06:43:06.606Z,99.90
2018-10-11T06:45:35.799Z,99.90
2018-10-11T06:48:06.783Z,99.90
2018-10-11T06:50:35.681Z,99.90
2018-10-11T06:53:04.571Z,99.90
2018-10-11T06:55:32.918Z,99.90
2018-10-11T06:58:01.386Z,99.90
2018-10-11T07:00:29.903Z,99.90
2018-10-11T07:02:58.321Z,99.90
2018-10-11T07:05:26.890Z,99.90
2018-10-11T07:07:55.361Z,99.90
2018-10-11T07:10:23.995Z,99.90
2018-10-11T07:12:52.415Z,99.90
2018-10-11T07:15:20.776Z,99.90
2018-10-11T07:17:49.246Z,99.90
2018-10-11T07:20:17.651Z,99.90
2018-10-11T07:22:46.133Z,99.90
2018-10-11T07:25:15.216Z,99.90
2018-10-11T07:27:43.702Z,99.90
2018-10-11T07:30:12.508Z,99.90
2018-10-11T07:32:40.951Z,99.90
2018-10-11T07:35:10.253Z,99.90
2018-10-11T07:37:38.719Z,99.90
2018-10-11T07:40:09.844Z,99.90
2018-10-11T07:42:38.808Z,99.90
2018-10-11T07:45:08.707Z,99.90
2018-10-11T07:47:37.491Z,99.90
2018-10-11T07:50:06.536Z,99.90
2018-10-11T07:52:35.182Z,99.90
2018-10-11T07:55:08.379Z,99.90
2018-10-11T07:57:36.844Z,99.90
2018-10-11T08:00:05.572Z,99.90
2018-10-11T08:02:33.920Z,99.90
2018-10-11T08:05:02.325Z,99.90
2018-10-11T08:07:30.830Z,99.90
2018-10-11T08:10:03.700Z,99.90
2018-10-11T08:12:32.125Z,99.90
2018-10-11T08:15:00.523Z,99.90
2018-10-11T08:17:29.446Z,99.90
2018-10-11T08:20:01.994Z,99.90
2018-10-11T08:22:30.282Z,99.90
2018-10-11T08:24:59.154Z,99.90
2018-10-11T08:27:27.671Z,99.90
2018-10-11T08:29:56.190Z,99.90
2018-10-11T08:32:24.712Z,99.90
2018-10-11T08:34:53.123Z,99.90
2018-10-11T08:37:21.575Z,99.90
2018-10-11T08:39:50.248Z,99.90
2018-10-11T08:42:18.592Z,99.90
2018-10-11T08:44:48.030Z,99.90
2018-10-11T08:47:16.674Z,99.90
2018-10-11T08:49:45.540Z,99.90
2018-10-11T08:52:14.872Z,99.90
2018-10-11T08:54:47.945Z,99.90
2018-10-11T08:57:16.652Z,99.90
2018-10-11T08:59:46.509Z,97.10
2018-10-11T09:02:15.033Z,94.70
2018-10-11T09:04:43.697Z,92.00
2018-10-11T09:07:12.353Z,89.70
2018-10-11T09:09:40.990Z,88.80
2018-10-11T09:12:09.386Z,90.40
2018-10-11T09:14:38.543Z,90.20
2018-10-11T09:17:06.934Z,89.30
2018-10-11T09:19:35.552Z,83.60
2018-10-11T09:22:03.929Z,82.90
2018-10-11T09:24:32.283Z,80.30
2018-10-11T09:27:00.715Z,77.20
2018-10-11T09:29:29.134Z,71.70
2018-10-11T09:31:57.478Z,71.10
2018-10-11T09:34:25.917Z,69.90
2018-10-11T09:36:54.259Z,67.50
2018-10-11T09:39:22.679Z,64.10
2018-10-11T09:41:51.027Z,62.90
2018-10-11T09:44:19.490Z,61.30
2018-10-11T09:46:49.171Z,61.20
2018-10-11T09:49:17.520Z,61.10
2018-10-11T09:51:46.203Z,64.60
2018-10-11T09:54:14.815Z,76.10
2018-10-11T09:57:18.342Z,85.10
2018-10-11T09:59:46.806Z,86.00
2018-10-11T10:02:15.606Z,88.20
2018-10-11T10:04:46.051Z,86.10
2018-10-11T10:07:14.515Z,82.70
2018-10-11T10:09:43.750Z,80.70
2018-10-11T10:12:12.694Z,78.10
2018-10-11T10:14:41.909Z,77.60
2018-10-11T10:17:10.658Z,79.10
2018-10-11T10:19:39.043Z,77.90
2018-10-11T10:22:07.548Z,78.90
2018-10-11T10:24:36.471Z,76.50
2018-10-11T10:27:04.410Z,75.60
2018-10-11T10:29:32.772Z,76.30
2018-10-11T10:32:01.889Z,80.40
2018-10-11T10:34:30.262Z,82.00
2018-10-11T10:36:58.744Z,83.90
2018-10-11T10:39:27.097Z,82.00
2018-10-11T10:41:55.524Z,81.10
2018-10-11T10:44:23.915Z,81.10
2018-10-11T10:46:52.579Z,79.90
2018-10-11T10:49:21.252Z,80.20
2018-10-11T10:51:49.739Z,82.90
2018-10-11T10:54:22.999Z,81.40
2018-10-11T10:56:52.085Z,80.60
2018-10-11T10:59:20.540Z,80.10
2018-10-11T11:01:48.911Z,80.30
2018-10-11T11:04:17.350Z,82.70
2018-10-11T11:06:45.905Z,82.00
2018-10-11T11:09:14.918Z,82.40
2018-10-11T11:11:43.677Z,81.00
2018-10-11T11:14:13.250Z,79.90
2018-10-11T11:16:42.068Z,79.90
2018-10-11T11:19:11.052Z,82.50
2018-10-11T11:21:39.625Z,82.60
2018-10-11T11:24:08.157Z,81.80
2018-10-11T11:26:36.514Z,80.30
2018-10-11T11:29:04.994Z,78.70
2018-10-11T11:31:33.433Z,78.70
2018-10-11T11:34:02.357Z,78.90
2018-10-11T11:36:31.407Z,80.50
2018-10-11T11:38:59.794Z,82.40
2018-10-11T11:41:28.139Z,79.30
2018-10-11T11:43:56.691Z,75.90
2018-10-11T11:46:25.122Z,74.70
2018-10-11T11:48:53.500Z,75.80
2018-10-11T11:51:21.914Z,78.50
2018-10-11T11:53:50.332Z,77.90
2018-10-11T11:56:19.005Z,80.20
2018-10-11T11:58:47.478Z,81.20
2018-10-11T12:01:15.925Z,80.70
2018-10-11T12:03:44.278Z,77.10
2018-10-11T12:06:12.667Z,76.90
2018-10-11T12:08:41.584Z,76.40
2018-10-11T12:11:09.965Z,74.00
2018-10-11T12:13:38.294Z,72.90
2018-10-11T12:16:06.852Z,73.80
2018-10-11T12:18:35.351Z,74.70
2018-10-11T12:21:03.816Z,75.30
2018-10-11T12:23:32.155Z,75.80
2018-10-11T12:26:00.584Z,72.50
2018-10-11T12:28:29.026Z,68.70
2018-10-11T12:30:57.296Z,69.20
2018-10-11T12:33:25.669Z,71.00
2018-10-11T12:35:54.121Z,70.50
2018-10-11T12:38:22.482Z,74.80
2018-10-11T12:40:50.905Z,77.30
2018-10-11T12:43:19.261Z,80.30
2018-10-11T12:45:47.662Z,78.00
2018-10-11T12:48:16.040Z,73.70
2018-10-11T12:50:44.428Z,72.00
2018-10-11T12:53:12.844Z,72.50
2018-10-11T12:55:41.228Z,75.90
2018-10-11T12:58:09.591Z,75.30
2018-10-11T13:00:37.931Z,73.40
2018-10-11T13:03:06.374Z,71.00
2018-10-11T13:05:34.720Z,69.40
2018-10-11T13:08:03.102Z,69.10
2018-10-11T13:10:31.463Z,68.00
2018-10-11T13:13:01.476Z,67.10
2018-10-11T13:15:28.234Z,67.50
2018-10-11T13:17:56.591Z,70.00
2018-10-11T13:20:25.077Z,68.60
2018-10-11T13:22:53.527Z,68.70
2018-10-11T13:25:21.835Z,71.40
2018-10-11T13:27:50.244Z,75.20
2018-10-11T13:30:18.683Z,76.60
2018-10-11T13:32:47.064Z,80.80
2018-10-11T13:35:15.475Z,84.80
2018-10-11T13:37:43.875Z,84.00
2018-10-11T13:40:12.292Z,84.60
2018-10-11T13:42:40.666Z,85.00
2018-10-11T13:45:09.059Z,85.60
2018-10-11T13:47:42.329Z,86.60
2018-10-11T13:50:06.078Z,89.10
2018-10-11T13:52:34.458Z,90.00
2018-10-11T13:55:09.647Z,88.40
2018-10-11T13:57:31.469Z,88.50
2018-10-11T13:59:59.700Z,88.90
2018-10-11T14:02:28.037Z,87.40
2018-10-11T14:04:56.385Z,86.40
2018-10-11T14:07:25.070Z,85.70
2018-10-11T14:09:53.414Z,84.50
2018-10-11T14:12:21.796Z,84.50
2018-10-11T14:14:50.132Z,84.30
2018-10-11T14:17:18.551Z,84.80
2018-10-11T14:19:46.943Z,85.40
2018-10-11T14:22:15.366Z,88.00
2018-10-11T14:24:43.766Z,90.40
2018-10-11T14:27:12.178Z,90.30
2018-10-11T14:29:40.589Z,90.90
2018-10-11T14:32:08.953Z,90.90
2018-10-11T14:34:37.642Z,91.00
2018-10-11T14:37:06.196Z,91.10
2018-10-11T14:39:34.466Z,91.00
2018-10-11T14:42:02.920Z,90.80
2018-10-11T14:44:31.302Z,90.80
2018-10-11T14:46:59.687Z,91.30
2018-10-11T14:49:28.143Z,92.70
2018-10-11T14:51:56.510Z,92.50
2018-10-11T14:54:24.916Z,92.30
2018-10-11T14:56:53.265Z,92.70
2018-10-11T14:59:21.686Z,92.70
2018-10-11T15:01:50.002Z,92.20
2018-10-11T15:04:18.405Z,92.40
2018-10-11T15:06:46.770Z,93.60
2018-10-11T15:09:15.326Z,93.90
2018-10-11T15:11:43.795Z,93.70
2018-10-11T15:14:12.134Z,94.30
2018-10-11T15:16:40.572Z,94.60
2018-10-11T15:19:08.989Z,95.20
2018-10-11T15:21:37.386Z,96.30
2018-10-11T15:24:06.233Z,96.20
2018-10-11T15:26:34.760Z,95.80
2018-10-11T15:29:03.257Z,95.90
2018-10-11T15:31:31.971Z,96.20
2018-10-11T15:34:00.357Z,95.90
2018-10-11T15:36:28.845Z,95.90
2018-10-11T15:38:57.228Z,95.90
2018-10-11T15:41:25.602Z,96.20
2018-10-11T15:43:54.039Z,97.20
2018-10-11T15:46:22.439Z,98.00
2018-10-11T15:48:50.825Z,98.10
2018-10-11T15:51:19.277Z,98.30
2018-10-11T15:53:47.675Z,98.00
2018-10-11T15:56:16.074Z,98.50
2018-10-11T15:58:44.452Z,98.60
2018-10-11T16:01:12.912Z,98.50
2018-10-11T16:03:41.364Z,98.50
2018-10-11T16:06:09.920Z,98.40
2018-10-11T16:08:38.252Z,98.60
2018-10-11T16:11:06.654Z,98.70
2018-10-11T16:13:35.086Z,99.00
2018-10-11T16:16:03.495Z,99.00
2018-10-11T16:18:31.987Z,99.20
2018-10-11T16:21:00.496Z,99.10
2018-10-11T16:23:29.153Z,99.20
2018-10-11T16:25:57.988Z,99.30
2018-10-11T16:28:26.520Z,99.50
2018-10-11T16:30:55.148Z,99.60
2018-10-11T16:33:23.754Z,99.90
2018-10-11T16:35:52.499Z,99.90
2018-10-11T16:38:20.914Z,99.90
2018-10-11T16:40:49.463Z,99.90
2018-10-11T16:43:18.395Z,99.90
2018-10-11T16:45:47.310Z,99.90
2018-10-11T16:48:16.803Z,99.90
2018-10-11T16:50:45.506Z,99.90
2018-10-11T16:53:14.252Z,99.90
2018-10-11T16:55:42.945Z,99.90
2018-10-11T16:58:12.254Z,99.90
2018-10-11T17:00:41.374Z,99.90
2018-10-11T17:03:10.457Z,99.90
2018-10-11T17:05:39.497Z,99.90
2018-10-11T17:08:08.742Z,99.90
2018-10-11T17:10:38.015Z,99.90
2018-10-11T17:13:07.078Z,99.90
2018-10-11T17:15:36.127Z,99.90
2018-10-11T17:18:04.774Z,99.90
2018-10-11T17:20:33.564Z,99.90
2018-10-11T17:23:02.159Z,99.90
2018-10-11T17:25:31.572Z,99.90
2018-10-11T17:28:00.296Z,99.90
2018-10-11T17:30:28.978Z,99.90
2018-10-11T17:32:57.543Z,99.90
2018-10-11T17:35:26.740Z,99.90
2018-10-11T17:37:55.191Z,99.90
2018-10-11T17:40:23.737Z,99.90
2018-10-11T17:42:52.196Z,99.90
2018-10-11T17:45:20.603Z,99.90
2018-10-11T17:47:50.002Z,99.90
2018-10-11T17:50:19.305Z,99.90
2018-10-11T17:52:48.706Z,99.90
2018-10-11T17:55:18.316Z,99.90
2018-10-11T17:57:47.414Z,99.90
2018-10-11T18:00:16.116Z,99.90
2018-10-11T18:02:44.700Z,99.90
2018-10-11T18:05:13.285Z,99.90
2018-10-11T18:07:42.067Z,99.90
2018-10-11T18:10:10.769Z,99.90
2018-10-11T18:12:39.542Z,99.90
2018-10-11T18:15:08.599Z,99.90
2018-10-11T18:17:37.856Z,99.90
2018-10-11T18:20:06.597Z,99.90
2018-10-11T18:22:35.185Z,99.90
2018-10-11T18:25:03.941Z,99.90
2018-10-11T18:27:36.645Z,99.90
2018-10-11T18:30:05.602Z,99.90
2018-10-11T18:32:34.225Z,99.90
2018-10-11T18:35:02.836Z,99.90
2018-10-11T18:37:32.024Z,99.90
2018-10-11T18:40:00.746Z,99.90
2018-10-11T18:42:29.325Z,99.90
2018-10-11T18:44:57.991Z,99.90
2018-10-11T18:47:26.508Z,99.90
2018-10-11T18:49:55.217Z,99.90
2018-10-11T18:52:23.779Z,99.90
2018-10-11T18:54:52.546Z,99.90
2018-10-11T18:57:21.298Z,99.90
2018-10-11T18:59:49.917Z,99.90
2018-10-11T19:02:18.499Z,99.90
2018-10-11T19:04:47.038Z,99.90
2018-10-11T19:07:15.704Z,99.90
2018-10-11T19:09:44.334Z,99.90
2018-10-11T19:12:12.982Z,99.90
2018-10-11T19:14:41.572Z,99.90
2018-10-11T19:17:10.133Z,99.90
2018-10-11T19:19:38.624Z,99.90
2018-10-11T19:22:07.343Z,99.90
2018-10-11T19:24:36.124Z,99.90
2018-10-11T19:27:04.742Z,99.90
2018-10-11T19:29:33.452Z,99.90
2018-10-11T19:32:02.061Z,99.90
2018-10-11T19:34:30.611Z,99.90
2018-10-11T19:36:59.156Z,99.90
2018-10-11T19:39:27.721Z,99.90
2018-10-11T19:41:56.294Z,99.90
2018-10-11T19:44:24.826Z,99.90
2018-10-11T19:46:53.489Z,99.90
2018-10-11T19:49:22.001Z,99.90
2018-10-11T19:51:50.578Z,99.90
2018-10-11T19:54:19.064Z,99.90
2018-10-11T19:56:47.526Z,99.90
2018-10-11T19:59:16.061Z,99.90
2018-10-11T20:01:44.926Z,99.90
2018-10-11T20:04:13.694Z,99.90
2018-10-11T20:06:42.186Z,99.90
2018-10-11T20:09:10.668Z,99.90
2018-10-11T20:11:39.135Z,99.90
2018-10-11T20:14:07.575Z,99.90
2018-10-11T20:16:36.042Z,99.90
2018-10-11T20:19:04.575Z,99.90
2018-10-11T20:21:33.083Z,99.90
2018-10-11T20:24:01.591Z,99.90
2018-10-11T20:26:30.464Z,99.90
2018-10-11T20:28:59.254Z,99.90
2018-10-11T20:31:27.880Z,99.90
2018-10-11T20:33:56.552Z,99.90
2018-10-11T20:36:25.847Z,99.90
2018-10-11T20:38:54.646Z,99.90
2018-10-11T20:41:23.232Z,99.90
2018-10-11T20:43:51.857Z,99.90
2018-10-11T20:46:20.604Z,99.90
2018-10-11T20:48:49.163Z,99.90
2018-10-11T20:51:17.664Z,99.90
2018-10-11T20:53:46.165Z,99.90
2018-10-11T20:56:14.723Z,99.90
2018-10-11T20:58:43.144Z,99.90
2018-10-11T21:01:11.636Z,99.90
2018-10-11T21:03:40.163Z,99.90
2018-10-11T21:06:08.594Z,99.90
2018-10-11T21:08:37.594Z,99.90
2018-10-11T21:11:06.101Z,99.90
2018-10-11T21:13:34.607Z,99.90
2018-10-11T21:16:03.342Z,99.90
2018-10-11T21:18:31.888Z,99.90
2018-10-11T21:21:00.699Z,99.90
2018-10-11T21:23:29.313Z,99.90
2018-10-11T21:25:57.968Z,99.90
2018-10-11T21:28:26.602Z,99.90
2018-10-11T21:30:55.142Z,99.90
2018-10-11T21:33:23.824Z,99.90
2018-10-11T21:35:52.477Z,99.90
2018-10-11T21:38:21.501Z,99.90
2018-10-11T21:40:49.970Z,99.90
2018-10-11T21:43:19.237Z,99.90
2018-10-11T21:45:47.566Z,99.90
2018-10-11T21:48:16.222Z,99.90
2018-10-11T21:50:44.602Z,99.90
2018-10-11T21:53:13.019Z,99.90
2018-10-11T21:55:41.828Z,99.90
2018-10-11T21:58:10.218Z,99.90
2018-10-11T22:00:44.060Z,99.90
2018-10-11T22:03:12.443Z,99.90
2018-10-11T22:05:41.081Z,99.90
2018-10-11T22:08:09.839Z,99.90
2018-10-11T22:10:38.962Z,99.90
2018-10-11T22:13:07.672Z,99.90
2018-10-11T22:15:36.844Z,99.90
2018-10-11T22:18:05.247Z,99.90
2018-10-11T22:20:33.640Z,99.90
2018-10-11T22:23:02.637Z,99.90
2018-10-11T22:25:31.032Z,99.90
2018-10-11T22:27:59.635Z,99.90
2018-10-11T22:30:28.026Z,99.90
2018-10-11T22:32:56.520Z,99.90
2018-10-11T22:35:25.089Z,99.90
2018-10-11T22:37:59.124Z,99.90
2018-10-11T22:40:27.686Z,99.90
2018-10-11T22:42:56.663Z,99.90
2018-10-11T22:45:25.847Z,99.90
2018-10-11T22:47:54.967Z,99.90
2018-10-11T22:50:24.131Z,99.90
2018-10-11T22:52:52.553Z,99.90
2018-10-11T22:55:20.950Z,99.90
2018-10-11T22:57:49.662Z,99.90
2018-10-11T23:00:18.383Z,99.90
2018-10-11T23:02:47.181Z,99.90
2018-10-11T23:05:15.612Z,99.90
2018-10-11T23:07:44.010Z,99.90
2018-10-11T23:10:12.369Z,99.90
2018-10-11T23:12:40.892Z,99.90
2018-10-11T23:15:09.341Z,99.90
2018-10-11T23:17:38.614Z,99.90
2018-10-11T23:20:07.295Z,99.90
2018-10-11T23:22:35.744Z,99.90
2018-10-11T23:25:04.163Z,99.90
2018-10-11T23:27:32.487Z,99.90
2018-10-11T23:30:00.887Z,99.90
2018-10-11T23:32:29.282Z,99.90
2018-10-11T23:34:57.723Z,99.90
2018-10-11T23:37:26.153Z,99.90
2018-10-11T23:39:54.682Z,99.90
2018-10-11T23:42:23.088Z,99.90
2018-10-11T23:44:52.279Z,99.90
2018-10-11T23:47:21.621Z,99.90
2018-10-11T23:49:49.990Z,99.90
2018-10-11T23:52:18.346Z,99.90
2018-10-11T23:54:47.025Z,99.90
2018-10-11T23:57:15.408Z,99.90
2018-10-11T23:59:43.758Z,99.90
